West, Texas
Current Conditions -  °F | °C
As of 7:53 PM on Friday 21 Nov 2014 (Local Time) from KCNW Reporting Station
Overcast Overcast  
Wind Chill: 66°   Ceiling: 1000
Heat Index: 66°   Visibility: 10mi
Dew Point: 63°   Wind: 8mph
Humidity: 88%   Direction: 130°SE
Pressure: 30.06"   Gusts: NA
Location:  31.8°N, 97.09°W
Report Text: KCNW 220153Z 13007KT 10SM OVC010 19/17 A3006
Loading
Personal Weather Stations






























Interactive Weather Map New forecast layout! Learn more

10-Day Weather Forecast

Advertisements
Track Severe Weather on mobile